NCAR-RAP Real-Time Weather Data

Output produced by METARs form (17 December 2018  07:47 UTC)
found at http://weather.rap.ucar.edu/surface/
 
RJNK 170700Z 22007KT 180V240 9999 -TSRA FEW008 BKN020 FEW020CB BKN030 09/05 Q1009
RJNK 170600Z 25020G31KT 9999 -SHRA FEW008 BKN020 FEW020CB BKN030 09/04 Q1008
RJNK 170500Z 22011KT 9999 FEW008 BKN020 BKN050 09/07 Q1008 RERA
RJNK 170400Z 18007KT 9999 FEW008 SCT050 BKN080 10/07 Q1008 REFC
RJNK 170300Z 22006KT 9999 -SHRA FEW008 SCT050 BKN080 11/06 Q1009
RJNK 170200Z 21006KT 160V240 9999 FEW020 SCT050 BKN080 11/07 Q1010
RJNK 170100Z 17004KT 9999 FEW020 BKN050 10/09 Q1010
RJNK 170000Z 18005KT 9999 FEW020 SCT030 BKN050 08/07 Q1011
RJNK 162300Z 23003KT 180V270 9999 FEW020 BKN030 07/07 Q1011
RJNK 162200Z VRB02KT 9999 FEW020 SCT030 07/06 Q1011
RJNK 162100Z 17003KT 9999 FEW020 SCT030 BKN050 06/06 Q1010
RJNK 162000Z 15005KT 9999 -SHRA FEW015 BKN020 BKN030 08/07 Q1011
RJNK 161900Z 22004KT 8000 -SHRA SCT020 BKN030 BKN050 08/07 Q1011
RJNK 161800Z 22004KT 8000 -SHRA FEW020 BKN030 BKN050 08/06 Q1012
RJNK 161700Z 20006KT 9999 -SHRA FEW020 BKN030 BKN050 08/06 Q1012
RJNK 161600Z 19007KT 9999 -SHRA FEW020 SCT030 OVC050 08/05 Q1013
RJNK 161500Z 18008KT 9999 FEW030 BKN040 OVC050 08/05 Q1014
RJNK 161400Z 20006KT 9999 -RA SCT030 BKN040 OVC050 07/06 Q1014
RJNK 161300Z 22006KT 9999 -RA FEW030 BKN040 OVC050 08/05 Q1015
RJNK 161200Z 19009KT 9999 -RA FEW030 BKN050 OVC100 08/05 Q1016
RJNK 161100Z 19010KT 9999 -RA FEW030 BKN050 OVC100 08/04 Q1016
RJNK 161000Z 19010KT 9999 -RA FEW030 SCT050 BKN100 09/03 Q1017
RJNK 160900Z 20012KT 9999 -RA FEW030 SCT050 BKN100 11/01 Q1017
RJNK 160800Z 19012KT 9999 FEW030 SCT100 BKN120 11/M01 Q1017
RJNK 160700Z 20016KT 9999 FEW050 SCT120 BKN150 11/M02 Q1017
RJNK 160600Z 21012KT 9999 FEW050 BKN150 BKN180 11/M02 Q1018
RJNK 160500Z 19012KT 9999 FEW020 BKN150 BKN180 12/M03 Q1018
RJNK 160400Z 19015G27KT 150V210 9999 FEW020 BKN150 BKN180 12/M02 Q1019
RJNK 160300Z 16004KT 070V210 9999 FEW020 SCT180 BKN230 10/00 Q1021
RJNK 160200Z 28005KT 250V310 9999 FEW020 BKN230 07/01 Q1022
RJNK 160100Z 12005KT 090V150 9999 FEW020 SCT180 BKN230 04/M01 Q1023
RJNK 160000Z 12004KT 9999 FEW020 SCT180 BKN230 01/M01 Q1024
RJNK 151300Z 15005KT 9999 FEW015 SCT060 01/M01 Q1029
RJNK 151200Z 14005KT 9999 FEW015 SCT060 01/M01 Q1029
RJNK 151100Z 14003KT 100V200 9999 FEW015 SCT060 01/00 Q1030
RJNK 151000Z 12003KT 9999 FEW015 SCT060 02/01 Q1029
RJNK 150900Z 12003KT 080V160 9999 FEW015 BKN060 04/02 Q1030
RJNK 150800Z VRB02KT 9999 FEW015 SCT040 BKN060 04/01 Q1030
RJNK 150700Z VRB01KT 9999 FEW010 SCT040 BKN060 05/M01 Q1030
RJNK 150600Z VRB02KT 9999 FEW020 BKN060 05/01 Q1030
RJNK 150500Z 00000KT 9999 FEW008 SCT040 BKN060 04/00 Q1030
RJNK 150400Z 25003KT 220V290 9999 -SHRA FEW005 SCT020 BKN040 03/02 Q1030
RJNK 150300Z 17005KT 9999 FEW005 SCT020 BKN040 02/01 Q1030
RJNK 150200Z 23003KT 9000 -SHSNRA FEW005 SCT010 BKN020 01/01 Q1031
RJNK 150100Z 17003KT 120V220 9999 FEW005 SCT020 BKN050 01/00 Q1031
RJNK 150000Z 14003KT 2000 -SHSN FEW005 BKN010 BKN020 00/M00 Q1031
RJNK 142300Z 09005KT 050V120 5000 -SHSN FEW002 SCT005 BKN010 00/M00 Q1031
RJNK 142200Z 04004KT 350V070 3000 -SHSN FEW005 SCT008 BKN010 00/M00 Q1030
RJNK 142100Z 11004KT 4000 -SHSN FEW010 BKN020 BKN030 FEW030TCU 01/00 Q1030
RJNK 142000Z 11004KT 5000 -SHSNRA FEW008 SCT010 BKN020 FEW020TCU 01/M00 Q1030